createdAt,value
2023-01-20T00:00:08.123Z,3.90
2023-01-20T00:01:08.140Z,4.00
2023-01-20T00:02:08.147Z,3.80
2023-01-20T00:03:08.166Z,3.80
2023-01-20T00:04:08.189Z,4.00
2023-01-20T00:05:08.229Z,4.00
2023-01-20T00:06:08.215Z,4.00
2023-01-20T00:07:08.237Z,4.00
2023-01-20T00:08:08.254Z,4.00
2023-01-20T00:09:08.288Z,4.20
2023-01-20T00:10:08.287Z,3.80
2023-01-20T00:11:08.298Z,4.10
2023-01-20T00:12:08.323Z,3.80
2023-01-20T00:13:08.336Z,4.00
2023-01-20T00:14:08.352Z,4.10
2023-01-20T00:15:08.370Z,4.00
2023-01-20T00:16:08.583Z,4.00
2023-01-20T00:17:08.397Z,3.70
2023-01-20T00:18:08.419Z,4.00
2023-01-20T00:19:08.437Z,3.90
2023-01-20T00:20:08.453Z,3.80
2023-01-20T00:21:08.480Z,3.80
2023-01-20T00:22:08.479Z,3.80
2023-01-20T00:23:08.501Z,4.10
2023-01-20T00:24:08.510Z,4.00
2023-01-20T00:25:08.535Z,3.70
2023-01-20T00:26:08.554Z,3.70
2023-01-20T00:27:08.564Z,4.00
2023-01-20T00:28:08.584Z,3.80
2023-01-20T00:29:08.600Z,3.80
2023-01-20T00:30:08.611Z,3.90
2023-01-20T00:31:08.652Z,4.00
2023-01-20T00:32:08.651Z,3.90
2023-01-20T00:33:08.660Z,3.90
2023-01-20T00:34:08.684Z,3.80
2023-01-20T00:35:08.704Z,3.90
2023-01-20T00:36:08.716Z,4.10
2023-01-20T00:37:08.752Z,4.00
2023-01-20T00:38:08.741Z,4.10
2023-01-20T00:39:08.770Z,4.50
2023-01-20T00:40:08.790Z,4.40
2023-01-20T00:41:08.802Z,4.30
2023-01-20T00:42:08.818Z,4.20
2023-01-20T00:43:08.824Z,4.40
2023-01-20T00:44:08.849Z,4.30
2023-01-20T00:45:08.867Z,4.20
2023-01-20T00:46:08.964Z,4.30
2023-01-20T00:47:08.890Z,4.40
2023-01-20T00:48:08.914Z,3.90
2023-01-20T00:49:08.924Z,4.00
2023-01-20T00:50:08.946Z,4.10
2023-01-20T00:51:08.955Z,3.70
2023-01-20T00:52:08.973Z,4.10
2023-01-20T00:53:09.010Z,4.00
2023-01-20T00:54:09.006Z,4.10
2023-01-20T00:55:09.032Z,3.90
2023-01-20T00:56:09.046Z,4.10
2023-01-20T00:57:09.055Z,4.10
2023-01-20T00:58:09.080Z,4.20
2023-01-20T00:59:09.095Z,4.30
2023-01-20T01:00:09.120Z,4.10
2023-01-20T01:01:09.314Z,4.10
2023-01-20T01:02:09.285Z,4.10
2023-01-20T01:03:09.163Z,4.20
2023-01-20T01:04:09.179Z,4.20
2023-01-20T01:05:09.206Z,4.30
2023-01-20T01:06:09.219Z,4.00
2023-01-20T01:07:09.228Z,4.30
2023-01-20T01:08:09.239Z,4.20
2023-01-20T01:09:09.278Z,4.00
2023-01-20T01:10:09.281Z,4.20
2023-01-20T01:11:09.288Z,4.00
2023-01-20T01:12:09.310Z,4.30
2023-01-20T01:13:09.334Z,4.10
2023-01-20T01:14:09.336Z,4.00
2023-01-20T01:15:09.353Z,4.10
2023-01-20T01:16:09.466Z,4.40
2023-01-20T01:17:09.383Z,4.20
2023-01-20T01:18:09.413Z,3.80
2023-01-20T01:19:09.426Z,4.10
2023-01-20T01:20:09.437Z,4.20
2023-01-20T01:21:09.476Z,4.50
2023-01-20T01:22:09.483Z,4.00
2023-01-20T01:23:09.492Z,4.20
2023-01-20T01:24:09.500Z,4.40
2023-01-20T01:25:09.564Z,4.30
2023-01-20T01:26:09.534Z,3.70
2023-01-20T01:27:09.554Z,4.00
2023-01-20T01:28:09.578Z,4.20
2023-01-20T01:29:09.582Z,4.50
2023-01-20T01:30:09.608Z,4.30
2023-01-20T01:31:09.691Z,4.50
2023-01-20T01:32:09.639Z,4.30
2023-01-20T01:33:09.656Z,4.20
2023-01-20T01:34:09.671Z,4.20
2023-01-20T01:35:09.680Z,4.00
2023-01-20T01:36:09.712Z,4.20
2023-01-20T01:37:09.725Z,4.30
2023-01-20T01:38:09.744Z,4.10
2023-01-20T01:39:09.757Z,4.20
2023-01-20T01:40:09.773Z,4.30
2023-01-20T01:41:09.806Z,4.20
2023-01-20T01:42:09.810Z,4.10
2023-01-20T01:43:09.821Z,4.10
2023-01-20T01:44:09.848Z,4.00
2023-01-20T01:45:09.861Z,4.00
2023-01-20T01:46:09.869Z,4.20
2023-01-20T01:47:09.880Z,4.00
2023-01-20T01:48:09.905Z,4.00
2023-01-20T01:49:09.922Z,3.80
2023-01-20T01:50:09.930Z,3.90
2023-01-20T01:51:09.949Z,4.30
2023-01-20T01:52:09.960Z,4.00
2023-01-20T01:53:09.983Z,4.20
2023-01-20T01:54:10.005Z,4.10
2023-01-20T01:55:10.025Z,4.00
2023-01-20T01:56:10.034Z,4.30
2023-01-20T01:57:10.271Z,4.00
2023-01-20T01:58:10.060Z,4.30
2023-01-20T01:59:10.077Z,3.80
2023-01-20T02:00:10.115Z,4.10
2023-01-20T02:01:10.254Z,4.10
2023-01-20T02:02:10.188Z,3.90
2023-01-20T02:03:10.154Z,4.10
2023-01-20T02:04:10.157Z,4.00
2023-01-20T02:05:10.185Z,4.10
2023-01-20T02:06:10.202Z,4.10
2023-01-20T02:07:10.215Z,4.30
2023-01-20T02:08:10.230Z,4.00
2023-01-20T02:09:10.247Z,4.00
2023-01-20T02:10:10.264Z,4.00
2023-01-20T02:11:10.281Z,3.90
2023-01-20T02:12:10.297Z,3.70
2023-01-20T02:13:10.334Z,4.00
2023-01-20T02:14:10.333Z,4.00
2023-01-20T02:15:10.340Z,4.20
2023-01-20T02:16:10.375Z,3.90
2023-01-20T02:17:10.369Z,4.00
2023-01-20T02:18:10.398Z,3.80
2023-01-20T02:19:10.411Z,4.00
2023-01-20T02:20:10.420Z,3.80
2023-01-20T02:21:10.477Z,3.90
2023-01-20T02:22:10.460Z,3.90
2023-01-20T02:23:10.470Z,4.20
2023-01-20T02:24:10.493Z,3.90
2023-01-20T02:25:10.518Z,4.20
2023-01-20T02:26:10.537Z,4.00
2023-01-20T02:27:10.552Z,4.00
2023-01-20T02:28:10.562Z,4.10
2023-01-20T02:29:10.586Z,4.00
2023-01-20T02:30:10.610Z,4.10
2023-01-20T02:31:10.602Z,3.90
2023-01-20T02:32:10.618Z,3.80
2023-01-20T02:33:10.643Z,3.90
2023-01-20T02:34:10.681Z,3.90
2023-01-20T02:35:10.670Z,3.90
2023-01-20T02:36:10.689Z,3.80
2023-01-20T02:37:10.706Z,3.80
2023-01-20T02:38:10.721Z,4.00
2023-01-20T02:39:10.738Z,3.70
2023-01-20T02:40:10.754Z,4.00
2023-01-20T02:41:10.769Z,3.60
2023-01-20T02:42:10.789Z,3.60
2023-01-20T02:43:10.798Z,4.10
2023-01-20T02:44:10.819Z,3.80
2023-01-20T02:45:10.861Z,3.90
2023-01-20T02:46:10.856Z,3.90
2023-01-20T02:47:10.863Z,3.90
2023-01-20T02:48:10.896Z,4.10
2023-01-20T02:49:10.933Z,3.80
2023-01-20T02:50:10.928Z,3.70
2023-01-20T02:51:10.938Z,3.90
2023-01-20T02:52:10.988Z,3.90
2023-01-20T02:53:10.964Z,3.90
2023-01-20T02:54:10.982Z,3.70
2023-01-20T02:55:11.041Z,4.00
2023-01-20T02:56:11.015Z,3.70
2023-01-20T02:57:11.023Z,3.80
2023-01-20T02:58:11.053Z,3.80
2023-01-20T02:59:11.074Z,4.10
2023-01-20T03:00:11.078Z,4.10
2023-01-20T03:01:11.297Z,4.10
2023-01-20T03:02:11.138Z,4.10
2023-01-20T03:03:11.145Z,3.90
2023-01-20T03:04:11.229Z,4.20
2023-01-20T03:05:11.164Z,4.10
2023-01-20T03:06:11.179Z,4.30
2023-01-20T03:07:11.189Z,4.00
2023-01-20T03:08:11.208Z,4.30
2023-01-20T03:09:11.221Z,4.00
2023-01-20T03:10:11.237Z,4.30
2023-01-20T03:11:11.255Z,4.20
2023-01-20T03:12:11.278Z,4.20
2023-01-20T03:13:11.286Z,4.30
2023-01-20T03:14:11.310Z,4.40
2023-01-20T03:15:11.378Z,4.30
2023-01-20T03:16:11.401Z,4.10
2023-01-20T03:17:11.388Z,4.40
2023-01-20T03:18:11.372Z,4.60
2023-01-20T03:19:11.383Z,4.30
2023-01-20T03:20:11.417Z,4.20
2023-01-20T03:21:11.415Z,4.70
2023-01-20T03:22:11.452Z,4.30
2023-01-20T03:23:11.519Z,4.80
2023-01-20T03:24:11.466Z,4.10
2023-01-20T03:25:11.518Z,4.40
2023-01-20T03:26:11.529Z,4.70
2023-01-20T03:27:11.530Z,4.50
2023-01-20T03:28:11.539Z,4.70
2023-01-20T03:29:11.665Z,4.40
2023-01-20T03:30:11.569Z,4.40
2023-01-20T03:31:11.719Z,4.50
2023-01-20T03:32:11.602Z,4.50
2023-01-20T03:33:11.638Z,4.70
2023-01-20T03:34:11.629Z,4.60
2023-01-20T03:35:11.654Z,4.40
2023-01-20T03:36:11.662Z,4.50
2023-01-20T03:37:11.708Z,4.70
2023-01-20T03:38:11.701Z,4.20
2023-01-20T03:39:11.724Z,4.60
2023-01-20T03:40:11.731Z,4.30
2023-01-20T03:41:11.740Z,4.20
2023-01-20T03:42:11.758Z,4.10
2023-01-20T03:43:11.777Z,4.50
2023-01-20T03:44:11.800Z,4.50
2023-01-20T03:45:11.833Z,4.70
2023-01-20T03:46:11.884Z,4.40
2023-01-20T03:47:11.848Z,4.50
2023-01-20T03:48:11.857Z,4.40
2023-01-20T03:49:11.892Z,4.80
2023-01-20T03:50:11.896Z,4.30
2023-01-20T03:51:11.911Z,4.60
2023-01-20T03:52:11.921Z,4.70
2023-01-20T03:53:11.945Z,4.60
2023-01-20T03:54:11.963Z,4.70
2023-01-20T03:55:12.526Z,4.40
2023-01-20T03:56:12.001Z,4.50
2023-01-20T03:57:12.014Z,4.50
2023-01-20T03:58:12.032Z,4.50
2023-01-20T03:59:12.043Z,4.70
2023-01-20T04:00:12.052Z,4.60
2023-01-20T04:01:18.086Z,4.80
2023-01-20T04:02:12.286Z,4.60
2023-01-20T04:03:12.128Z,4.70
2023-01-20T04:04:12.125Z,4.70
2023-01-20T04:05:12.414Z,5.00
2023-01-20T04:06:12.160Z,4.90
2023-01-20T04:07:12.173Z,4.70
2023-01-20T04:08:12.200Z,4.50
2023-01-20T04:09:12.199Z,4.70
2023-01-20T04:10:12.242Z,4.90
2023-01-20T04:11:12.237Z,4.30
2023-01-20T04:12:12.255Z,4.60
2023-01-20T04:13:12.275Z,4.80
2023-01-20T04:14:12.285Z,5.20
2023-01-20T04:15:12.355Z,4.70
2023-01-20T04:16:12.427Z,4.70
2023-01-20T04:17:12.338Z,4.50
2023-01-20T04:18:12.343Z,4.80
2023-01-20T04:19:12.360Z,4.80
2023-01-20T04:20:12.403Z,4.70
2023-01-20T04:21:12.417Z,4.70
2023-01-20T04:22:12.418Z,4.90
2023-01-20T04:23:12.433Z,4.80
2023-01-20T04:24:12.443Z,4.40
2023-01-20T04:25:12.934Z,4.70
2023-01-20T04:26:12.478Z,4.60
2023-01-20T04:27:12.491Z,4.70
2023-01-20T04:28:12.524Z,5.00
2023-01-20T04:29:13.290Z,4.80
2023-01-20T04:30:12.541Z,4.60
2023-01-20T04:31:25.009Z,4.80
2023-01-20T04:32:12.577Z,4.80
2023-01-20T04:33:12.588Z,4.80
2023-01-20T04:34:12.610Z,4.60
2023-01-20T04:35:13.058Z,4.80
2023-01-20T04:36:12.644Z,4.60
2023-01-20T04:37:12.875Z,4.70
2023-01-20T04:38:12.669Z,4.80
2023-01-20T04:39:12.689Z,4.90
2023-01-20T04:40:12.707Z,4.90
2023-01-20T04:41:12.718Z,4.90
2023-01-20T04:42:12.747Z,4.70
2023-01-20T04:43:12.751Z,4.60
2023-01-20T04:44:12.779Z,4.80
2023-01-20T04:45:13.151Z,4.90
2023-01-20T04:46:12.869Z,4.50
2023-01-20T04:47:12.817Z,4.80
2023-01-20T04:48:12.837Z,4.90
2023-01-20T04:49:12.852Z,4.70
2023-01-20T04:50:12.867Z,4.80
2023-01-20T04:51:12.898Z,4.70
2023-01-20T04:52:12.895Z,4.80
2023-01-20T04:53:12.930Z,4.50
2023-01-20T04:54:12.931Z,4.90
2023-01-20T04:55:13.248Z,4.80
2023-01-20T04:56:13.004Z,4.80
2023-01-20T04:57:12.976Z,4.60
2023-01-20T04:58:13.005Z,4.90
2023-01-20T04:59:13.015Z,5.10
2023-01-20T05:00:13.028Z,5.00
2023-01-20T05:01:13.179Z,4.30
2023-01-20T05:02:13.239Z,4.80
2023-01-20T05:03:13.073Z,4.80
2023-01-20T05:04:13.099Z,4.80
2023-01-20T05:05:13.435Z,4.90
2023-01-20T05:06:13.129Z,5.20
2023-01-20T05:07:13.146Z,4.90
2023-01-20T05:08:13.153Z,4.90
2023-01-20T05:09:13.197Z,5.20
2023-01-20T05:10:13.438Z,4.80
2023-01-20T05:11:13.211Z,4.80
2023-01-20T05:12:13.221Z,4.80
2023-01-20T05:13:13.242Z,4.90
2023-01-20T05:14:13.259Z,4.70
2023-01-20T05:15:13.672Z,5.00
2023-01-20T05:16:13.313Z,4.80
2023-01-20T05:17:13.326Z,5.00
2023-01-20T05:18:13.328Z,5.00
2023-01-20T05:19:13.343Z,5.10
2023-01-20T05:20:13.357Z,4.80
2023-01-20T05:21:13.363Z,5.10
2023-01-20T05:22:13.407Z,4.90
2023-01-20T05:23:13.395Z,4.80
2023-01-20T05:24:13.424Z,4.80
2023-01-20T05:25:13.737Z,5.20
2023-01-20T05:26:13.451Z,4.80
2023-01-20T05:27:13.469Z,5.10
2023-01-20T05:28:13.476Z,4.60
2023-01-20T05:29:13.498Z,5.00
2023-01-20T05:30:13.515Z,4.90
2023-01-20T05:31:13.656Z,4.80
2023-01-20T05:32:13.556Z,5.00
2023-01-20T05:33:13.557Z,5.10
2023-01-20T05:34:13.576Z,4.90
2023-01-20T05:35:14.023Z,4.80
2023-01-20T05:36:13.606Z,5.00
2023-01-20T05:37:13.625Z,5.20
2023-01-20T05:38:13.643Z,5.10
2023-01-20T05:39:13.652Z,5.50
2023-01-20T05:40:13.681Z,4.90
2023-01-20T05:41:13.712Z,5.00
2023-01-20T05:42:13.703Z,5.00
2023-01-20T05:43:13.724Z,5.10
2023-01-20T05:44:13.737Z,4.80
2023-01-20T05:45:14.175Z,5.30
2023-01-20T05:46:13.862Z,5.10
2023-01-20T05:47:13.795Z,5.40
2023-01-20T05:48:13.813Z,5.00
2023-01-20T05:49:13.826Z,4.90
2023-01-20T05:50:13.837Z,5.10
2023-01-20T05:51:13.846Z,5.10
2023-01-20T05:52:13.874Z,5.10
2023-01-20T05:53:13.907Z,5.10
2023-01-20T05:54:13.905Z,5.10
2023-01-20T05:55:14.246Z,5.00
2023-01-20T05:56:13.933Z,4.90
2023-01-20T05:57:13.976Z,5.10
2023-01-20T05:58:13.961Z,5.00
2023-01-20T05:59:13.981Z,4.90
2023-01-20T06:00:14.010Z,5.20
2023-01-20T06:01:14.114Z,5.10
2023-01-20T06:02:14.031Z,4.90
2023-01-20T06:03:14.040Z,5.20
2023-01-20T06:04:14.055Z,5.40
2023-01-20T06:05:14.514Z,4.80
2023-01-20T06:06:14.102Z,5.20
2023-01-20T06:07:14.105Z,5.40
2023-01-20T06:08:14.126Z,4.90
2023-01-20T06:09:14.140Z,5.10
2023-01-20T06:10:14.150Z,5.20
2023-01-20T06:11:14.177Z,5.20
2023-01-20T06:12:14.184Z,5.00
2023-01-20T06:13:14.224Z,5.00
2023-01-20T06:14:14.215Z,5.30
2023-01-20T06:15:14.622Z,5.20
2023-01-20T06:16:14.352Z,5.00
2023-01-20T06:17:14.271Z,5.20
2023-01-20T06:18:14.281Z,5.00
2023-01-20T06:19:14.303Z,4.90
2023-01-20T06:20:14.329Z,5.30
2023-01-20T06:21:14.327Z,5.00
2023-01-20T06:22:14.354Z,5.00
2023-01-20T06:23:14.369Z,4.80
2023-01-20T06:24:14.388Z,5.10
2023-01-20T06:25:14.866Z,5.00
2023-01-20T06:26:14.410Z,5.20
2023-01-20T06:27:14.424Z,4.80
2023-01-20T06:28:14.442Z,5.30
2023-01-20T06:29:14.475Z,5.30
2023-01-20T06:30:14.479Z,5.00
2023-01-20T06:31:14.612Z,5.00
2023-01-20T06:32:14.509Z,4.70
2023-01-20T06:33:14.528Z,4.90
2023-01-20T06:34:14.536Z,4.80
2023-01-20T06:35:14.805Z,4.90
2023-01-20T06:36:14.578Z,4.90
2023-01-20T06:37:14.583Z,5.00
2023-01-20T06:38:14.607Z,4.90
2023-01-20T06:39:14.627Z,5.10
2023-01-20T06:40:14.640Z,5.10
2023-01-20T06:41:14.657Z,4.90
2023-01-20T06:42:14.679Z,5.00
2023-01-20T06:43:14.681Z,4.60
2023-01-20T06:44:14.702Z,4.90
2023-01-20T06:45:15.079Z,4.80
2023-01-20T06:46:14.750Z,4.60
2023-01-20T06:47:14.759Z,5.00
2023-01-20T06:48:14.764Z,4.90
2023-01-20T06:49:14.781Z,4.60
2023-01-20T06:50:14.812Z,4.80
2023-01-20T06:51:14.810Z,4.70
2023-01-20T06:52:14.833Z,4.70
2023-01-20T06:53:14.849Z,4.50
2023-01-20T06:54:14.858Z,4.80
2023-01-20T06:55:15.021Z,5.00
2023-01-20T06:56:14.924Z,4.70
2023-01-20T06:57:14.904Z,4.70
2023-01-20T06:58:14.921Z,4.90
2023-01-20T06:59:14.943Z,4.90
2023-01-20T07:00:14.952Z,4.60
2023-01-20T07:01:15.200Z,4.60
2023-01-20T07:02:15.112Z,4.70
2023-01-20T07:03:15.001Z,4.70
2023-01-20T07:04:15.016Z,4.80
2023-01-20T07:05:15.367Z,4.80
2023-01-20T07:06:15.055Z,4.80
2023-01-20T07:07:15.065Z,4.70
2023-01-20T07:08:15.108Z,4.70
2023-01-20T07:09:15.097Z,4.80
2023-01-20T07:10:15.120Z,4.70
2023-01-20T07:11:15.137Z,4.60
2023-01-20T07:12:15.146Z,4.80
2023-01-20T07:13:15.168Z,4.60
2023-01-20T07:14:15.183Z,4.60
2023-01-20T07:15:15.599Z,4.60
2023-01-20T07:16:16.020Z,4.90
2023-01-20T07:17:15.259Z,4.60
2023-01-20T07:18:15.248Z,4.60
2023-01-20T07:19:15.257Z,4.90
2023-01-20T07:20:15.273Z,4.70
2023-01-20T07:21:15.291Z,4.80
2023-01-20T07:22:15.315Z,4.70
2023-01-20T07:23:15.332Z,4.90
2023-01-20T07:24:15.336Z,4.50
2023-01-20T07:25:15.755Z,4.60
2023-01-20T07:26:15.377Z,4.40
2023-01-20T07:27:15.393Z,4.30
2023-01-20T07:28:15.407Z,4.70
2023-01-20T07:29:17.754Z,4.50
2023-01-20T07:30:15.440Z,4.70
2023-01-20T07:31:15.488Z,4.60
2023-01-20T07:32:15.484Z,4.50
2023-01-20T07:33:15.501Z,4.50
2023-01-20T07:34:15.496Z,4.50
2023-01-20T07:35:15.861Z,4.80
2023-01-20T07:36:15.545Z,4.30
2023-01-20T07:37:15.552Z,4.50
2023-01-20T07:38:15.564Z,4.60
2023-01-20T07:39:15.583Z,4.60
2023-01-20T07:40:15.611Z,4.80
2023-01-20T07:41:15.637Z,4.60
2023-01-20T07:42:15.630Z,4.70
2023-01-20T07:43:15.647Z,4.60
2023-01-20T07:44:15.661Z,4.80
2023-01-20T07:45:15.899Z,4.70
2023-01-20T07:46:15.690Z,4.80
2023-01-20T07:47:15.716Z,4.70
2023-01-20T07:48:15.726Z,4.60
2023-01-20T07:49:15.760Z,4.50
2023-01-20T07:50:15.759Z,4.70
2023-01-20T07:51:15.772Z,4.60
2023-01-20T07:52:15.783Z,4.70
2023-01-20T07:53:15.814Z,4.70
2023-01-20T07:54:15.820Z,4.90
2023-01-20T07:55:16.193Z,4.70
2023-01-20T07:56:15.853Z,4.80
2023-01-20T07:57:15.871Z,4.80
2023-01-20T07:58:15.886Z,4.70
2023-01-20T07:59:15.894Z,4.40
2023-01-20T08:00:15.931Z,4.90
2023-01-20T08:01:16.087Z,4.60
2023-01-20T08:02:15.951Z,4.80
2023-01-20T08:03:15.964Z,5.10
2023-01-20T08:04:15.972Z,4.90
2023-01-20T08:05:16.531Z,5.00
2023-01-20T08:06:16.018Z,4.60
2023-01-20T08:07:16.021Z,4.90
2023-01-20T08:08:16.045Z,5.00
2023-01-20T08:09:16.052Z,4.80
2023-01-20T08:10:16.087Z,4.70
2023-01-20T08:11:16.097Z,5.00
2023-01-20T08:12:16.103Z,4.50
2023-01-20T08:13:16.115Z,4.80
2023-01-20T08:14:16.163Z,4.80
2023-01-20T08:15:16.685Z,5.20
2023-01-20T08:16:16.219Z,4.90
2023-01-20T08:17:16.185Z,4.80
2023-01-20T08:18:16.203Z,5.20
2023-01-20T08:19:16.213Z,4.70
2023-01-20T08:20:18.155Z,5.00
2023-01-20T08:21:16.261Z,4.70
2023-01-20T08:22:16.260Z,4.70
2023-01-20T08:23:16.273Z,4.80
2023-01-20T08:24:16.297Z,5.10
2023-01-20T08:25:16.732Z,5.10
2023-01-20T08:26:16.332Z,5.00
2023-01-20T08:27:16.340Z,4.90
2023-01-20T08:28:16.717Z,5.10
2023-01-20T08:29:16.382Z,4.90
2023-01-20T08:30:16.397Z,5.40
2023-01-20T08:31:16.572Z,4.70
2023-01-20T08:32:16.426Z,4.90
2023-01-20T08:33:16.456Z,5.30
2023-01-20T08:34:16.451Z,5.10
2023-01-20T08:35:16.790Z,4.80
2023-01-20T08:36:16.488Z,5.20
2023-01-20T08:37:16.516Z,5.20
2023-01-20T08:38:16.522Z,5.30
2023-01-20T08:39:16.537Z,5.20
2023-01-20T08:40:16.548Z,5.40
2023-01-20T08:41:16.566Z,5.40
2023-01-20T08:42:16.582Z,5.10
2023-01-20T08:43:16.593Z,5.70
2023-01-20T08:44:16.610Z,5.40
2023-01-20T08:45:16.914Z,5.70
2023-01-20T08:46:16.730Z,6.00
2023-01-20T08:47:16.664Z,5.70
2023-01-20T08:48:16.680Z,5.50
2023-01-20T08:49:16.694Z,5.30
2023-01-20T08:50:16.706Z,5.40
2023-01-20T08:51:16.753Z,5.80
2023-01-20T08:52:16.744Z,5.30
2023-01-20T08:53:16.777Z,5.70
2023-01-20T08:54:16.783Z,6.30
2023-01-20T08:55:17.210Z,5.70
2023-01-20T08:56:16.810Z,5.90
2023-01-20T08:57:16.813Z,6.00
2023-01-20T08:58:16.831Z,5.80
2023-01-20T08:59:16.847Z,5.80
2023-01-20T09:00:16.873Z,5.90
2023-01-20T09:01:16.944Z,5.60
2023-01-20T09:02:16.923Z,5.80
2023-01-20T09:03:16.911Z,6.10
2023-01-20T09:04:16.927Z,5.60
2023-01-20T09:05:17.197Z,5.30
2023-01-20T09:06:16.959Z,5.90
2023-01-20T09:07:16.995Z,5.40
2023-01-20T09:08:16.996Z,5.80
2023-01-20T09:09:17.032Z,4.90
2023-01-20T09:10:17.029Z,5.70
2023-01-20T09:11:17.091Z,5.80
2023-01-20T09:12:17.067Z,6.00
2023-01-20T09:13:17.079Z,5.70
2023-01-20T09:14:17.088Z,5.90
2023-01-20T09:15:17.181Z,5.80
2023-01-20T09:16:17.243Z,5.40
2023-01-20T09:17:17.137Z,5.70
2023-01-20T09:18:17.149Z,6.00
2023-01-20T09:19:17.174Z,6.10
2023-01-20T09:20:17.189Z,6.30
2023-01-20T09:21:17.205Z,5.60
2023-01-20T09:22:17.216Z,5.80
2023-01-20T09:23:17.237Z,6.30
2023-01-20T09:24:17.241Z,6.10
2023-01-20T09:25:17.618Z,6.50
2023-01-20T09:26:33.465Z,6.10
2023-01-20T09:27:17.294Z,5.90
2023-01-20T09:28:17.314Z,6.00
2023-01-20T09:29:17.336Z,6.10
2023-01-20T09:30:17.342Z,6.10
2023-01-20T09:31:17.410Z,6.40
2023-01-20T09:32:17.373Z,6.40
2023-01-20T09:33:17.389Z,6.20
2023-01-20T09:34:17.411Z,6.40
2023-01-20T09:35:17.927Z,6.00
2023-01-20T09:36:17.443Z,6.00
2023-01-20T09:37:17.455Z,6.10
2023-01-20T09:38:17.465Z,5.70
2023-01-20T09:39:17.485Z,6.20
2023-01-20T09:40:17.602Z,5.90
2023-01-20T09:41:17.582Z,6.20
2023-01-20T09:42:17.528Z,6.30
2023-01-20T09:43:17.572Z,6.30
2023-01-20T09:44:17.565Z,6.40
2023-01-20T09:45:17.572Z,6.50
2023-01-20T09:46:17.635Z,6.20
2023-01-20T09:47:17.612Z,6.40
2023-01-20T09:48:17.628Z,6.70
2023-01-20T09:49:17.645Z,6.40
2023-01-20T09:50:17.860Z,6.70
2023-01-20T09:51:17.672Z,6.40
2023-01-20T09:52:17.684Z,6.40
2023-01-20T09:53:17.706Z,6.20
2023-01-20T09:54:17.715Z,6.30
2023-01-20T09:55:17.732Z,6.30
2023-01-20T09:56:17.793Z,6.00
2023-01-20T09:57:17.783Z,6.20
2023-01-20T09:58:17.787Z,6.20
2023-01-20T09:59:17.795Z,6.30
2023-01-20T10:00:17.823Z,6.10
2023-01-20T10:01:17.863Z,6.20
2023-01-20T10:02:17.849Z,6.10
2023-01-20T10:03:17.887Z,6.30
2023-01-20T10:04:17.872Z,6.20
2023-01-20T10:05:17.922Z,6.40
2023-01-20T10:06:18.059Z,6.30
2023-01-20T10:07:17.925Z,6.20
2023-01-20T10:08:17.948Z,6.00
2023-01-20T10:09:17.958Z,6.60
2023-01-20T10:10:18.040Z,7.00
2023-01-20T10:11:18.026Z,6.40
2023-01-20T10:12:18.013Z,6.50
2023-01-20T10:13:18.101Z,6.40
2023-01-20T10:14:18.040Z,6.30
2023-01-20T10:15:18.048Z,6.40
2023-01-20T10:16:18.204Z,6.40
2023-01-20T10:17:18.079Z,6.40
2023-01-20T10:18:18.101Z,6.50
2023-01-20T10:19:18.723Z,6.30
2023-01-20T10:20:18.133Z,6.20
2023-01-20T10:21:18.149Z,6.30
2023-01-20T10:22:18.165Z,6.20
2023-01-20T10:23:18.181Z,6.30
2023-01-20T10:24:18.195Z,6.10
2023-01-20T10:25:18.205Z,6.10
2023-01-20T10:26:18.229Z,5.90
2023-01-20T10:27:18.236Z,5.90
2023-01-20T10:28:18.263Z,6.10
2023-01-20T10:29:18.312Z,5.70
2023-01-20T10:30:18.412Z,6.40
2023-01-20T10:31:18.415Z,6.20
2023-01-20T10:32:18.324Z,6.10
2023-01-20T10:33:18.330Z,5.80
2023-01-20T10:34:18.355Z,6.00
2023-01-20T10:35:18.609Z,6.20
2023-01-20T10:36:18.386Z,5.90
2023-01-20T10:37:18.400Z,5.70
2023-01-20T10:38:18.417Z,5.70
2023-01-20T10:39:18.432Z,6.10
2023-01-20T10:40:18.504Z,6.00
2023-01-20T10:41:19.691Z,6.00
2023-01-20T10:42:18.489Z,5.80
2023-01-20T10:43:18.489Z,5.60
2023-01-20T10:44:18.504Z,5.70
2023-01-20T10:45:18.593Z,6.00
2023-01-20T10:46:18.598Z,5.90
2023-01-20T10:47:18.552Z,5.80
2023-01-20T10:48:18.577Z,5.90
2023-01-20T10:49:18.594Z,5.50
2023-01-20T10:50:18.665Z,5.50
2023-01-20T10:51:18.615Z,5.70
2023-01-20T10:52:18.630Z,5.50
2023-01-20T10:53:18.653Z,5.70
2023-01-20T10:54:18.670Z,5.80
2023-01-20T10:55:18.685Z,5.60
2023-01-20T10:56:18.697Z,5.20
2023-01-20T10:57:18.727Z,5.50
2023-01-20T10:58:18.724Z,5.40
2023-01-20T10:59:18.744Z,5.70
2023-01-20T11:00:18.767Z,5.30
2023-01-20T11:01:18.948Z,5.60
2023-01-20T11:02:18.848Z,5.30
2023-01-20T11:03:18.902Z,5.30
2023-01-20T11:04:18.830Z,5.40
2023-01-20T11:05:18.857Z,5.40
2023-01-20T11:06:18.862Z,5.20
2023-01-20T11:07:18.867Z,5.50
2023-01-20T11:08:18.883Z,5.30
2023-01-20T11:09:18.899Z,5.60
2023-01-20T11:10:18.954Z,5.20
2023-01-20T11:11:18.939Z,5.50
2023-01-20T11:12:18.948Z,5.10
2023-01-20T11:13:18.993Z,5.00
2023-01-20T11:14:18.980Z,5.30
2023-01-20T11:15:19.003Z,5.20
2023-01-20T11:16:19.095Z,5.40
2023-01-20T11:17:19.092Z,5.30
2023-01-20T11:18:19.041Z,5.20
2023-01-20T11:19:19.070Z,5.30
2023-01-20T11:20:19.083Z,5.00
2023-01-20T11:21:19.097Z,5.10
2023-01-20T11:22:19.104Z,5.30
2023-01-20T11:23:19.127Z,5.30
2023-01-20T11:24:19.137Z,5.10
2023-01-20T11:25:19.157Z,4.90
2023-01-20T11:26:19.179Z,5.10
2023-01-20T11:27:19.187Z,5.10
2023-01-20T11:28:19.224Z,5.10
2023-01-20T11:29:19.225Z,5.20
2023-01-20T11:30:19.237Z,5.00
2023-01-20T11:31:19.384Z,5.10
2023-01-20T11:32:19.268Z,5.20
2023-01-20T11:33:19.345Z,4.80
2023-01-20T11:34:19.298Z,4.90
2023-01-20T11:35:19.309Z,4.50
2023-01-20T11:36:19.337Z,5.00
2023-01-20T11:37:19.348Z,4.70
2023-01-20T11:38:19.356Z,4.90
2023-01-20T11:39:19.383Z,4.80
2023-01-20T11:40:19.401Z,4.80
2023-01-20T11:41:19.413Z,4.80
2023-01-20T11:42:19.419Z,4.80
2023-01-20T11:43:19.440Z,4.70
2023-01-20T11:44:19.454Z,5.10
2023-01-20T11:45:21.529Z,5.20
2023-01-20T11:46:19.543Z,5.10
2023-01-20T11:47:19.512Z,5.20
2023-01-20T11:48:19.524Z,5.40
2023-01-20T11:49:19.578Z,4.90
2023-01-20T11:50:19.545Z,5.10
2023-01-20T11:51:19.574Z,5.10
2023-01-20T11:52:19.588Z,5.40
2023-01-20T11:53:19.607Z,5.30
2023-01-20T11:54:19.643Z,5.30
2023-01-20T11:55:19.632Z,5.70
2023-01-20T11:56:19.652Z,5.40
2023-01-20T11:57:19.653Z,5.20
2023-01-20T11:58:19.697Z,5.50
2023-01-20T11:59:19.695Z,5.20
2023-01-20T12:00:19.711Z,5.30
2023-01-20T12:01:19.716Z,5.60
2023-01-20T12:02:19.768Z,5.20
2023-01-20T12:03:19.756Z,5.40
2023-01-20T12:04:19.906Z,5.40
2023-01-20T12:05:19.800Z,5.60
2023-01-20T12:06:19.798Z,5.10
2023-01-20T12:07:19.826Z,5.50
2023-01-20T12:08:19.835Z,5.40
2023-01-20T12:09:19.853Z,5.50
2023-01-20T12:10:19.867Z,5.60
2023-01-20T12:11:19.876Z,5.20
2023-01-20T12:12:19.891Z,5.30
2023-01-20T12:13:19.908Z,5.30
2023-01-20T12:14:19.930Z,5.10
2023-01-20T12:15:19.936Z,5.30
2023-01-20T12:16:20.036Z,5.40
2023-01-20T12:17:19.969Z,5.20
2023-01-20T12:18:19.995Z,5.50
2023-01-20T12:19:20.004Z,5.10
2023-01-20T12:20:20.015Z,5.20
2023-01-20T12:21:20.054Z,5.20
2023-01-20T12:22:20.053Z,5.60
2023-01-20T12:23:20.062Z,5.10
2023-01-20T12:24:20.087Z,5.60
2023-01-20T12:25:20.093Z,5.10
2023-01-20T12:26:20.121Z,5.50
2023-01-20T12:27:20.136Z,5.40
2023-01-20T12:28:20.142Z,5.30
2023-01-20T12:29:20.157Z,5.20
2023-01-20T12:30:22.819Z,5.40
2023-01-20T12:31:20.370Z,5.30
2023-01-20T12:32:20.221Z,5.50
2023-01-20T12:33:20.220Z,5.10
2023-01-20T12:34:20.240Z,5.40
2023-01-20T12:35:20.251Z,5.40
2023-01-20T12:36:20.290Z,5.30
2023-01-20T12:37:20.339Z,5.40
2023-01-20T12:38:20.297Z,4.90
2023-01-20T12:39:20.313Z,5.30
2023-01-20T12:40:20.343Z,5.20
2023-01-20T12:41:20.349Z,5.10
2023-01-20T12:42:20.362Z,5.10
2023-01-20T12:43:20.383Z,5.00
2023-01-20T12:44:20.403Z,5.10
2023-01-20T12:45:20.409Z,5.30
2023-01-20T12:46:20.435Z,5.20
2023-01-20T12:47:20.452Z,5.10
2023-01-20T12:48:20.464Z,4.70
2023-01-20T12:49:20.479Z,5.00
2023-01-20T12:50:20.540Z,5.10
2023-01-20T12:51:20.580Z,4.80
2023-01-20T12:52:20.525Z,4.90
2023-01-20T12:53:20.583Z,4.90
2023-01-20T12:54:20.551Z,5.00
2023-01-20T12:55:20.572Z,4.90
2023-01-20T12:56:20.590Z,4.70
2023-01-20T12:57:20.598Z,4.70
2023-01-20T12:58:20.625Z,4.50
2023-01-20T12:59:20.635Z,4.60
2023-01-20T13:00:20.654Z,4.60
2023-01-20T13:01:20.716Z,4.90
2023-01-20T13:02:20.677Z,4.50
2023-01-20T13:03:20.735Z,4.50
2023-01-20T13:04:20.708Z,4.60
2023-01-20T13:05:20.724Z,4.80
2023-01-20T13:06:20.746Z,4.70
2023-01-20T13:07:20.769Z,4.40
2023-01-20T13:08:20.779Z,4.40
2023-01-20T13:09:20.812Z,4.10
2023-01-20T13:10:20.809Z,4.30
2023-01-20T13:11:20.981Z,4.60
2023-01-20T13:12:20.842Z,4.70
2023-01-20T13:13:20.850Z,4.40
2023-01-20T13:14:20.867Z,4.60
2023-01-20T13:15:20.888Z,4.30
2023-01-20T13:16:20.936Z,4.50
2023-01-20T13:17:20.923Z,4.50
2023-01-20T13:18:20.935Z,4.20